Time;durP1;ratioP1;P1;durP2;ratioP2;P2;SDS_P1;SDS_P2;PMS_P1;PMS_P2;Temp;Humidity;BMP_temperature;BMP_pressure;BME280_temperature;BME280_humidity;BME280_pressure;Samples;Min_cycle;Max_cycle;Signal;HPM_P1;HPM_P2
2024/01/15 00:01:56;;;;;;;11.60;7.13;;;;;;;3.97;60.55;98278.78;6162893;22;101849;-83
2024/01/15 00:04:21;;;;;;;12.37;7.07;;;;;;;4.03;60.24;98293.25;6188312;22;98162;-83
2024/01/15 00:06:46;;;;;;;11.83;7.00;;;;;;;3.94;60.03;98273.69;6213406;22;96535;-83
2024/01/15 00:09:12;;;;;;;12.20;6.30;;;;;;;3.94;59.83;98296.22;6163215;22;96731;-83
2024/01/15 00:11:37;;;;;;;10.40;5.93;;;;;;;3.76;59.90;98264.06;6188147;22;97810;-87
2024/01/15 00:14:03;;;;;;;11.93;6.40;;;;;;;3.87;59.88;98256.69;6188329;22;101227;-83
2024/01/15 00:16:29;;;;;;;10.03;6.57;;;;;;;4.01;59.73;98254.34;6188623;22;96767;-83
2024/01/15 00:18:54;;;;;;;9.67;6.10;;;;;;;3.99;59.57;98263.97;6214293;22;96741;-83
2024/01/15 00:21:20;;;;;;;9.77;6.17;;;;;;;3.97;59.49;98249.38;6162874;22;101430;-83
2024/01/15 00:23:45;;;;;;;10.30;6.83;;;;;;;3.95;59.75;98265.00;6163317;22;99697;-83
2024/01/15 00:26:11;;;;;;;9.77;6.40;;;;;;;3.86;59.62;98240.25;6163215;22;96499;-84
2024/01/15 00:28:37;;;;;;;12.27;7.63;;;;;;;3.94;59.39;98239.13;6188484;22;96904;-83
2024/01/15 00:31:04;;;;;;;9.87;6.37;;;;;;;4.01;59.21;98254.34;6162165;22;101279;-84
2024/01/15 00:33:30;;;;;;;11.37;6.60;;;;;;;3.69;59.18;98202.91;6162717;22;101232;-86
2024/01/15 00:35:55;;;;;;;10.97;6.27;;;;;;;3.65;58.87;98190.97;6214132;22;96442;-87
2024/01/15 00:38:21;;;;;;;9.60;5.90;;;;;;;3.99;58.71;98221.59;6214155;22;96753;-86
2024/01/15 00:40:46;;;;;;;10.77;6.07;;;;;;;3.89;58.70;98222.88;6213667;22;97746;-86
2024/01/15 00:43:12;;;;;;;11.10;6.90;;;;;;;3.79;59.19;98205.06;6213209;22;97601;-86
2024/01/15 00:45:37;;;;;;;9.20;6.13;;;;;;;3.86;58.94;98211.69;6188517;22;96457;-85
2024/01/15 00:48:04;;;;;;;10.03;6.83;;;;;;;3.82;58.78;98206.72;6189151;22;96831;-86
2024/01/15 00:50:29;;;;;;;11.80;6.87;;;;;;;3.64;58.39;98166.78;6188024;22;101007;-86
2024/01/15 00:52:55;;;;;;;11.77;7.17;;;;;;;3.93;58.42;98180.31;6187721;22;99893;-86
2024/01/15 00:55:20;;;;;;;10.60;6.53;;;;;;;3.67;58.44;98158.03;6162594;22;96491;-86
2024/01/15 00:57:46;;;;;;;11.43;7.13;;;;;;;3.88;58.25;98190.03;6214054;22;96677;-86
2024/01/15 01:00:12;;;;;;;9.53;6.37;;;;;;;3.63;58.22;98152.94;6162670;22;101499;-85
2024/01/15 01:02:37;;;;;;;10.33;6.73;;;;;;;3.93;58.36;98194.13;6162418;22;99747;-85
2024/01/15 01:05:03;;;;;;;10.53;7.00;;;;;;;3.78;58.48;98195.59;6162987;22;96606;-85
2024/01/15 01:07:29;;;;;;;9.90;6.60;;;;;;;3.87;58.54;98194.41;6163130;22;96767;-85
2024/01/15 01:09:55;;;;;;;10.73;7.20;;;;;;;3.82;58.29;98180.75;6188024;22;100919;-87
2024/01/15 01:12:20;;;;;;;11.97;7.80;;;;;;;3.70;58.72;98174.31;6163041;22;102737;-86
2024/01/15 01:14:46;;;;;;;10.80;6.63;;;;;;;3.66;58.88;98177.91;6162923;22;96541;-86
2024/01/15 01:17:11;;;;;;;11.27;7.37;;;;;;;3.71;58.39;98172.56;6214033;22;96583;-85
2024/01/15 01:19:36;;;;;;;11.47;7.37;;;;;;;3.70;58.40;98186.44;6187444;22;98381;-86
2024/01/15 01:22:02;;;;;;;9.90;6.53;;;;;;;3.66;58.57;98184.84;6188096;22;97336;-85
2024/01/15 01:24:28;;;;;;;10.60;6.87;;;;;;;3.40;58.38;98130.53;6188422;22;96437;-85
2024/01/15 01:26:53;;;;;;;11.47;8.03;;;;;;;3.56;58.72;98161.88;6188374;22;96799;-87
2024/01/15 01:29:19;;;;;;;11.93;7.40;;;;;;;3.58;58.47;98178.25;6187878;22;98388;-86
2024/01/15 01:31:45;;;;;;;11.50;7.23;;;;;;;3.60;58.91;98178.16;6162347;22;101525;-85
2024/01/15 01:34:13;;;;;;;10.80;6.80;;;;;;;3.34;58.74;98142.88;6163149;22;96495;-86
2024/01/15 01:36:39;;;;;;;11.30;7.67;;;;;;;3.45;58.61;98166.63;6188445;22;96798;-86
2024/01/15 01:39:05;;;;;;;11.47;7.17;;;;;;;3.41;58.91;98165.09;6162457;22;101030;-86
2024/01/15 01:41:30;;;;;;;11.93;7.13;;;;;;;3.48;58.73;98153.56;6162507;22;100215;-85
2024/01/15 01:43:57;;;;;;;12.43;6.90;;;;;;;3.54;58.66;98160.25;6162400;22;96562;-86
2024/01/15 01:46:23;;;;;;;14.07;8.30;;;;;;;3.50;58.59;98131.00;6213795;22;96666;-86
2024/01/15 01:48:48;;;;;;;11.23;7.07;;;;;;;3.59;58.55;98143.59;6162393;22;101146;-87
2024/01/15 01:51:14;;;;;;;12.17;8.30;;;;;;;3.54;58.59;98132.53;6215065;22;97781;-86
2024/01/15 01:53:40;;;;;;;10.97;6.90;;;;;;;3.34;59.02;98107.41;6213447;22;96783;-86
2024/01/15 01:56:06;;;;;;;10.57;7.07;;;;;;;3.45;58.61;98132.09;6213763;22;96673;-86
2024/01/15 01:58:32;;;;;;;12.23;7.60;;;;;;;3.50;58.35;98131.00;6187902;22;97849;-86
2024/01/15 02:00:58;;;;;;;13.23;7.70;;;;;;;3.53;58.75;98145.59;6162786;22;101405;-85
2024/01/15 02:03:25;;;;;;;12.57;8.03;;;;;;;3.27;60.64;98116.34;6188170;22;96467;-86
2024/01/15 02:05:50;;;;;;;11.97;7.90;;;;;;;3.49;61.60;98142.28;6188321;22;96749;-86
2024/01/15 02:08:16;;;;;;;14.60;8.50;;;;;;;3.40;61.92;98138.31;6161985;22;99572;-85
2024/01/15 02:10:42;;;;;;;19.77;11.17;;;;;;;3.60;61.87;98147.88;6187608;22;101308;-86
2024/01/15 02:13:07;;;;;;;13.33;8.30;;;;;;;3.40;61.50;98124.47;6213708;22;96413;-86
2024/01/15 02:15:33;;;;;;;14.97;9.17;;;;;;;3.24;61.60;98097.47;6187967;22;96885;-87
2024/01/15 02:18:06;;;;;;;12.60;7.80;;;;;;;3.32;61.79;98101.47;6213329;22;98204;-86
2024/01/15 02:20:32;;;;;;;12.37;8.40;;;;;;;3.45;61.62;98126.91;6187707;22;99249;-86
2024/01/15 02:23:11;;;;;;;14.50;8.67;;;;;;;3.62;60.76;98140.88;6188295;22;96513;-85
2024/01/15 02:25:45;;;;;;;11.87;8.13;;;;;;;3.47;60.13;98089.63;6188383;22;96500;-86
2024/01/15 02:28:12;;;;;;;12.97;7.43;;;;;;;3.64;60.06;98112.28;6187715;22;97527;-86
2024/01/15 02:30:39;;;;;;;12.77;8.13;;;;;;;3.57;60.06;98090.91;6187814;22;98434;-85
2024/01/15 02:33:06;;;;;;;11.77;7.40;;;;;;;3.79;59.82;98118.59;6214434;22;96470;-86
2024/01/15 02:35:31;;;;;;;12.33;8.17;;;;;;;3.85;59.35;98110.53;6188024;22;96777;-85
2024/01/15 02:37:57;;;;;;;10.87;7.40;;;;;;;3.65;59.50;98081.97;6187860;22;98391;-86
2024/01/15 02:40:22;;;;;;;11.83;7.27;;;;;;;3.84;59.16;98095.88;6187814;22;97926;-85
2024/01/15 02:42:48;;;;;;;11.83;7.70;;;;;;;3.74;58.78;98072.06;6162620;22;96466;-85
2024/01/15 02:45:13;;;;;;;11.47;7.43;;;;;;;3.87;58.81;98103.53;6162653;22;96846;-86
2024/01/15 02:47:39;;;;;;;10.47;6.87;;;;;;;3.64;59.26;98091.53;6187552;22;97786;-86
2024/01/15 02:50:05;;;;;;;10.57;7.43;;;;;;;3.75;60.11;98097.13;6162217;22;99824;-86
2024/01/15 02:52:30;;;;;;;11.83;7.37;;;;;;;3.39;61.61;98083.88;6187490;22;96473;-86
2024/01/15 02:54:56;;;;;;;11.40;7.30;;;;;;;3.34;61.54;98063.31;6213604;22;96764;-86
2024/01/15 02:57:21;;;;;;;9.73;6.40;;;;;;;3.39;61.74;98074.34;6186696;22;101512;-86
2024/01/15 02:59:47;;;;;;;10.90;6.83;;;;;;;3.56;61.11;98071.06;6162136;22;100710;-85
2024/01/15 03:02:12;;;;;;;11.97;6.67;;;;;;;3.62;60.77;98075.16;6187835;22;96443;-85
2024/01/15 03:04:43;;;;;;;12.87;7.40;;;;;;;3.54;61.11;98069.44;6212801;22;96730;-86
2024/01/15 03:07:08;;;;;;;9.00;6.40;;;;;;;3.56;61.29;98065.88;6212964;22;100004;-86
2024/01/15 03:09:34;;;;;;;11.73;7.33;;;;;;;3.52;61.16;98042.72;6161960;22;101170;-90
2024/01/15 03:11:59;;;;;;;9.90;6.10;;;;;;;3.69;60.75;98068.81;6213112;22;96521;-88
2024/01/15 03:14:26;;;;;;;10.80;6.20;;;;;;;3.64;60.41;98070.78;6162950;22;96813;-86
2024/01/15 03:16:52;;;;;;;8.80;5.77;;;;;;;3.58;60.22;98061.50;6212676;22;100556;-86
2024/01/15 03:19:17;;;;;;;8.77;5.87;;;;;;;3.67;59.98;98049.88;6213059;22;97947;-86
2024/01/15 03:21:43;;;;;;;9.17;5.53;;;;;;;3.56;60.12;98058.09;6212553;22;96427;-86
2024/01/15 03:24:08;;;;;;;8.27;5.33;;;;;;;3.29;59.93;98010.81;6187740;22;96742;-86
2024/01/15 03:26:34;;;;;;;9.70;5.67;;;;;;;3.54;60.31;98054.72;6187167;22;96957;-89
2024/01/15 03:28:59;;;;;;;7.50;5.40;;;;;;;3.30;60.16;98015.09;6187194;22;101013;-86
2024/01/15 03:31:25;;;;;;;8.87;5.07;;;;;;;3.13;60.27;97997.63;6187547;22;96462;-86
2024/01/15 03:33:50;;;;;;;10.53;5.67;;;;;;;3.55;60.07;98056.44;6162238;22;96749;-85
2024/01/15 03:36:16;;;;;;;10.00;7.10;;;;;;;3.52;59.63;98050.50;6186941;22;101210;-86
2024/01/15 03:38:42;;;;;;;14.77;8.17;;;;;;;3.59;59.90;98052.78;6162130;22;101544;-85
2024/01/15 03:41:07;;;;;;;11.10;6.47;;;;;;;3.54;59.61;98033.13;6162075;22;96512;-85
2024/01/15 03:43:33;;;;;;;11.67;6.90;;;;;;;3.59;59.57;98062.31;6213076;22;96691;-86
2024/01/15 03:45:59;;;;;;;9.80;6.40;;;;;;;3.63;59.01;98043.13;6213561;22;98602;-85
2024/01/15 03:48:24;;;;;;;9.50;6.23;;;;;;;3.62;58.87;98044.03;6186810;22;101094;-87
2024/01/15 03:50:50;;;;;;;9.10;5.73;;;;;;;3.52;58.90;98027.16;6187420;22;96418;-86
2024/01/15 03:53:15;;;;;;;8.63;5.67;;;;;;;3.67;58.91;98047.28;6212310;22;96773;-86
2024/01/15 03:55:42;;;;;;;9.27;6.33;;;;;;;3.62;58.68;98031.91;6186974;22;97930;-85
2024/01/15 03:58:07;;;;;;;10.37;6.40;;;;;;;3.53;58.54;98044.44;6161592;22;100879;-86
2024/01/15 04:00:33;;;;;;;11.00;7.23;;;;;;;3.35;58.91;98005.38;6187282;22;96396;-85
2024/01/15 04:02:59;;;;;;;8.57;5.83;;;;;;;3.63;58.80;98035.34;6187537;22;96801;-85
2024/01/15 04:05:24;;;;;;;10.40;6.67;;;;;;;3.57;58.92;98020.03;6186765;22;100975;-87
2024/01/15 04:07:50;;;;;;;11.57;6.60;;;;;;;3.53;59.08;98042.66;6161577;22;101582;-85
2024/01/15 04:10:15;;;;;;;10.03;5.77;;;;;;;3.50;58.96;98041.97;6186492;22;96456;-85
2024/01/15 04:12:41;;;;;;;10.57;6.43;;;;;;;3.45;nan;98015.38;6161792;22;96746;-86
2024/01/15 04:15:07;;;;;;;10.47;5.73;;;;;;;3.61;58.94;98024.19;6212448;22;97353;-85
2024/01/15 04:17:33;;;;;;;12.23;6.93;;;;;;;3.68;59.08;98017.81;6187135;22;101264;-85
2024/01/15 04:19:58;;;;;;;9.50;5.77;;;;;;;3.65;58.74;98020.56;6163273;22;96602;-86
2024/01/15 04:22:25;;;;;;;10.60;5.83;;;;;;;3.53;58.89;98008.09;6214295;22;96756;-86
2024/01/15 04:24:50;;;;;;;8.47;5.47;;;;;;;3.67;58.75;98012.72;6213871;22;97889;-86
2024/01/15 04:27:16;;;;;;;7.97;5.20;;;;;;;3.63;58.71;98011.97;6214169;22;97779;-85
2024/01/15 04:29:42;;;;;;;9.60;6.00;;;;;;;3.52;58.91;97986.50;6214277;22;96477;-85
2024/01/15 04:32:07;;;;;;;11.03;6.07;;;;;;;3.59;58.64;98006.09;6215420;22;96650;-86
2024/01/15 04:34:33;;;;;;;9.43;6.07;;;;;;;3.74;58.60;98009.78;6187206;22;99389;-85
2024/01/15 04:36:58;;;;;;;9.47;5.77;;;;;;;3.75;58.19;97995.91;6162928;22;101168;-85
2024/01/15 04:39:24;;;;;;;10.27;6.07;;;;;;;3.89;58.23;97999.63;6214236;22;96494;-86
2024/01/15 04:41:49;;;;;;;8.27;5.90;;;;;;;3.62;58.24;97971.38;6188892;22;96811;-85
2024/01/15 04:44:15;;;;;;;9.47;6.40;;;;;;;3.73;57.92;97987.34;6162766;22;101741;-87
2024/01/15 04:46:40;;;;;;;11.00;6.43;;;;;;;3.69;58.06;97988.38;6213479;22;97978;-86
2024/01/15 04:49:06;;;;;;;11.17;6.67;;;;;;;3.74;58.04;97983.81;6188345;22;96455;-83
2024/01/15 04:51:32;;;;;;;10.70;6.47;;;;;;;3.71;58.01;97981.38;6163606;22;96766;-84
2024/01/15 04:53:57;;;;;;;11.60;6.47;;;;;;;3.80;58.01;97982.72;6212884;22;97654;-83
2024/01/15 04:56:23;;;;;;;11.67;6.57;;;;;;;3.73;57.58;97979.56;6187863;22;97896;-83
2024/01/15 04:58:48;;;;;;;11.20;6.77;;;;;;;3.67;57.85;97971.19;6162306;22;96518;-83
2024/01/15 05:01:16;;;;;;;10.13;5.93;;;;;;;3.75;57.85;97987.25;6188366;22;96574;-83
2024/01/15 05:03:41;;;;;;;17.47;8.20;;;;;;;3.89;57.17;97987.50;6162611;22;100807;-83
2024/01/15 05:06:07;;;;;;;10.57;6.57;;;;;;;3.76;57.77;97989.81;6187989;22;97895;-83
2024/01/15 05:08:32;;;;;;;10.17;6.63;;;;;;;3.62;57.42;97972.22;6188494;22;96461;-83
2024/01/15 05:10:58;;;;;;;9.40;5.97;;;;;;;3.45;57.81;97940.97;6215330;22;96635;-83
2024/01/15 05:13:23;;;;;;;11.27;5.93;;;;;;;3.53;57.98;97945.84;6188117;22;97726;-83
2024/01/15 05:15:49;;;;;;;9.57;5.97;;;;;;;3.71;57.97;97990.91;6188364;22;101564;-83
2024/01/15 05:18:14;;;;;;;7.97;5.17;;;;;;;3.53;57.91;97959.66;6213698;22;96482;-83
2024/01/15 05:20:40;;;;;;;8.50;5.47;;;;;;;3.69;57.94;97975.38;6213940;22;96491;-84
2024/01/15 05:23:05;;;;;;;10.70;5.17;;;;;;;3.80;58.07;97985.31;6161933;22;101285;-84
2024/01/15 05:25:31;;;;;;;9.07;5.63;;;;;;;3.65;58.08;97949.66;6187622;22;101146;-84
2024/01/15 05:27:56;;;;;;;8.77;5.00;;;;;;;3.59;58.32;97954.19;6162437;22;96528;-83
2024/01/15 05:30:22;;;;;;;7.07;4.40;;;;;;;3.80;58.20;98003.47;6162914;22;96907;-83
2024/01/15 05:32:47;;;;;;;7.57;4.43;;;;;;;3.38;60.33;97955.13;6187966;22;98017;-83
2024/01/15 05:35:13;;;;;;;8.70;4.23;;;;;;;3.27;61.18;97983.25;6162521;22;101589;-83
2024/01/15 05:37:45;;;;;;;7.87;4.90;;;;;;;3.52;61.32;98001.22;6213786;22;96473;-83
2024/01/15 05:40:12;;;;;;;6.07;3.70;;;;;;;3.42;61.65;97989.56;6188893;22;96675;-83
2024/01/15 05:42:39;;;;;;;8.57;4.90;;;;;;;3.29;62.53;97974.50;6186967;22;100463;-84
2024/01/15 05:45:05;;;;;;;6.77;4.00;;;;;;;3.42;63.12;97986.97;6187461;22;99337;-82
2024/01/15 05:47:30;;;;;;;7.57;4.83;;;;;;;3.67;62.72;98000.59;6214589;22;96349;-83
2024/01/15 05:49:56;;;;;;;7.33;4.50;;;;;;;3.63;62.68;97988.63;6187980;22;96838;-84
2024/01/15 05:52:22;;;;;;;7.90;4.47;;;;;;;3.65;62.83;98014.53;6192011;22;100692;-83
2024/01/15 05:54:49;;;;;;;7.00;4.20;;;;;;;3.47;63.42;98013.56;6167457;22;101508;-83
2024/01/15 05:57:14;;;;;;;7.60;4.80;;;;;;;3.31;63.84;98008.97;6192960;22;96547;-85
2024/01/15 05:59:40;;;;;;;8.10;4.33;;;;;;;3.42;63.82;98023.28;6192766;22;96790;-84
2024/01/15 06:02:05;;;;;;;7.73;4.10;;;;;;;3.44;63.97;98011.09;6192856;22;97802;-84
2024/01/15 06:04:31;;;;;;;7.73;4.30;;;;;;;3.32;64.88;98015.03;6192810;22;101418;-83
2024/01/15 06:06:56;;;;;;;6.37;4.43;;;;;;;3.25;64.68;98004.06;6192683;22;96464;-86
2024/01/15 06:09:22;;;;;;;6.93;4.63;;;;;;;3.17;65.09;98004.38;6193033;22;96853;-85
2024/01/15 06:11:47;;;;;;;6.90;4.23;;;;;;;3.05;65.03;97983.28;6217490;22;98077;-83
2024/01/15 06:14:13;;;;;;;6.17;3.93;;;;;;;3.25;64.91;98014.44;6218150;22;98095;-83
2024/01/15 06:16:38;;;;;;;7.33;4.07;;;;;;;3.12;64.69;97976.97;6193148;22;96468;-83
2024/01/15 06:19:04;;;;;;;8.07;4.10;;;;;;;3.30;64.73;98019.44;6192988;22;96847;-83
2024/01/15 06:21:29;;;;;;;6.50;4.20;;;;;;;3.33;64.47;98002.00;6167145;22;101056;-83
2024/01/15 06:23:56;;;;;;;10.10;4.73;;;;;;;3.13;64.29;97983.81;6192549;22;101646;-83
2024/01/15 06:26:22;;;;;;;8.80;5.10;;;;;;;3.22;64.29;98001.59;6218770;22;96459;-83
2024/01/15 06:28:48;;;;;;;7.10;4.90;;;;;;;3.22;64.03;98001.59;6167628;22;96815;-83
2024/01/15 06:31:13;;;;;;;11.27;5.20;;;;;;;3.20;64.10;98015.50;6192552;22;101174;-83
2024/01/15 06:33:39;;;;;;;9.43;5.63;;;;;;;3.01;64.29;97986.91;6192628;22;101306;-83
2024/01/15 06:36:05;;;;;;;7.67;4.53;;;;;;;2.96;64.19;97976.72;6166876;22;96448;-83
2024/01/15 06:38:31;;;;;;;7.57;4.50;;;;;;;3.29;63.99;98025.53;6167663;22;96739;-83
2024/01/15 06:40:56;;;;;;;7.80;4.03;;;;;;;3.24;63.78;98012.75;6191828;22;101024;-84
2024/01/15 06:43:22;;;;;;;6.33;4.23;;;;;;;3.35;63.85;98010.56;6166991;22;100906;-83
2024/01/15 06:45:47;;;;;;;7.20;4.70;;;;;;;3.45;63.27;98023.97;6218353;22;96386;-83
2024/01/15 06:48:16;;;;;;;8.97;5.13;;;;;;;3.28;63.89;98022.06;6192999;22;96774;-82
2024/01/15 06:50:45;;;;;;;9.10;4.97;;;;;;;3.28;64.22;98044.56;6167359;22;101539;-83
2024/01/15 06:53:10;;;;;;;6.10;4.10;;;;;;;3.23;63.80;98039.59;6187038;22;100034;-84
2024/01/15 06:55:37;;;;;;;8.23;5.20;;;;;;;3.26;63.91;98042.06;6187516;22;96473;-83
2024/01/15 06:58:03;;;;;;;7.50;5.03;;;;;;;3.22;63.70;98055.19;6187811;22;96794;-83
2024/01/15 07:00:29;;;;;;;7.53;4.80;;;;;;;3.30;63.47;98041.03;6186644;22;99999;-83
2024/01/15 07:02:54;;;;;;;7.70;4.90;;;;;;;3.25;63.66;98044.69;6187532;22;101063;-83
2024/01/15 07:05:20;;;;;;;7.60;4.60;;;;;;;3.16;63.56;98041.56;6187639;22;96486;-83
2024/01/15 07:07:47;;;;;;;8.57;5.00;;;;;;;3.34;63.28;98071.09;6187233;22;96933;-84
2024/01/15 07:10:13;;;;;;;8.97;5.50;;;;;;;3.21;63.22;98048.34;6162213;22;100332;-85
2024/01/15 07:12:38;;;;;;;8.27;4.67;;;;;;;3.26;62.95;98059.34;6187249;22;97800;-84
2024/01/15 07:15:06;;;;;;;9.27;5.00;;;;;;;3.30;63.33;98071.31;6187760;22;96457;-84
2024/01/15 07:17:32;;;;;;;8.77;4.90;;;;;;;3.36;62.43;98061.50;6188390;22;96738;-84
2024/01/15 07:19:57;;;;;;;8.70;4.63;;;;;;;3.46;62.13;98054.22;6162096;22;101158;-83
2024/01/15 07:22:23;;;;;;;10.23;6.60;;;;;;;3.61;61.62;98065.72;6187194;22;97368;-86
2024/01/15 07:24:48;;;;;;;9.70;5.37;;;;;;;3.30;61.19;98042.78;6186787;22;96452;-83
2024/01/15 07:27:14;;;;;;;9.13;5.20;;;;;;;3.38;60.81;98062.31;6162356;22;96879;-84
2024/01/15 07:29:40;;;;;;;9.87;5.67;;;;;;;3.27;60.10;98074.84;6187306;22;98509;-83
2024/01/15 07:32:07;;;;;;;8.27;5.03;;;;;;;3.23;59.85;98072.44;6186894;22;100924;-82
2024/01/15 07:34:33;;;;;;;12.00;5.50;;;;;;;3.27;59.46;98093.00;6187350;22;96576;-84
2024/01/15 07:36:58;;;;;;;11.37;6.33;;;;;;;3.35;59.59;98075.41;6187121;22;96748;-83
2024/01/15 07:39:25;;;;;;;14.03;7.20;;;;;;;3.43;59.18;98077.66;6186861;22;97824;-85
2024/01/15 07:41:51;;;;;;;12.27;5.90;;;;;;;3.32;59.22;98066.91;6187332;22;101924;-84
2024/01/15 07:44:17;;;;;;;10.63;5.60;;;;;;;3.43;59.03;98079.41;6187548;22;96500;-84
2024/01/15 07:46:48;;;;;;;13.47;6.30;;;;;;;3.37;58.44;98073.59;6187184;22;96796;-84
2024/01/15 07:49:14;;;;;;;8.80;5.30;;;;;;;3.39;58.42;98074.34;6186289;22;101509;-84
2024/01/15 07:51:40;;;;;;;9.10;5.50;;;;;;;3.52;58.18;98066.06;6162555;22;100987;-86
2024/01/15 07:54:06;;;;;;;9.57;5.20;;;;;;;3.33;57.52;98045.25;6188400;22;96453;-85
2024/01/15 07:56:32;;;;;;;10.53;4.57;;;;;;;3.48;57.15;98054.13;6188465;22;96748;-84
2024/01/15 07:58:57;;;;;;;9.07;5.50;;;;;;;3.85;55.80;98049.09;6188260;22;101464;-84
2024/01/15 08:01:22;;;;;;;6.90;4.33;;;;;;;3.63;55.76;98005.03;6213677;22;101459;-84
2024/01/15 08:03:48;;;;;;;8.43;4.37;;;;;;;3.48;55.08;98015.22;6214148;22;96463;-84
2024/01/15 08:06:14;;;;;;;8.07;4.40;;;;;;;3.32;55.60;97994.28;6163319;22;96744;-84
2024/01/15 08:08:39;;;;;;;7.20;4.33;;;;;;;3.51;55.20;98023.72;6188467;22;98549;-84
2024/01/15 08:11:05;;;;;;;9.33;4.77;;;;;;;3.57;55.32;98030.41;6188008;22;100658;-83
2024/01/15 08:13:30;;;;;;;6.70;3.90;;;;;;;3.34;55.34;98016.63;6213587;22;96504;-83
2024/01/15 08:15:56;;;;;;;8.80;4.73;;;;;;;3.33;55.08;98011.53;6188045;22;96781;-84
2024/01/15 08:18:21;;;;;;;8.23;4.67;;;;;;;3.32;55.21;97999.47;6162785;22;100344;-84
2024/01/15 08:20:47;;;;;;;8.30;4.83;;;;;;;3.60;55.18;98036.31;6188199;22;97939;-83
2024/01/15 08:23:13;;;;;;;9.10;5.00;;;;;;;3.57;54.75;98025.22;6163212;22;96431;-83
2024/01/15 08:25:38;;;;;;;7.53;4.30;;;;;;;3.31;54.59;97975.28;6188458;22;96861;-85
2024/01/15 08:28:04;;;;;;;7.63;4.30;;;;;;;3.54;54.10;98007.19;6213401;22;101044;-84
2024/01/15 08:30:29;;;;;;;8.27;4.33;;;;;;;3.33;54.25;97975.22;6188141;22;99187;-85
2024/01/15 08:32:55;;;;;;;8.40;3.97;;;;;;;3.40;53.94;98006.03;6162860;22;96499;-82
2024/01/15 08:35:25;;;;;;;12.43;3.97;;;;;;;3.74;53.90;98035.72;6188560;22;96838;-84
2024/01/15 08:37:50;;;;;;;9.90;3.90;;;;;;;3.68;53.64;98028.19;6186879;22;101191;-83
2024/01/15 08:40:16;;;;;;;6.37;3.57;;;;;;;3.66;53.66;98037.78;6162490;22;101746;-85
2024/01/15 08:42:42;;;;;;;6.63;3.87;;;;;;;3.61;53.52;98040.59;6187862;22;96466;-83
2024/01/15 08:45:09;;;;;;;8.57;3.97;;;;;;;3.72;53.76;98044.47;6188446;22;96783;-82
2024/01/15 08:47:34;;;;;;;8.17;3.93;;;;;;;3.74;53.67;98050.47;6213477;22;100417;-82
2024/01/15 08:50:00;;;;;;;7.87;4.20;;;;;;;3.71;53.30;98048.84;6162603;22;101036;-83
2024/01/15 08:52:26;;;;;;;8.67;4.33;;;;;;;3.65;53.42;98030.09;6213451;22;96435;-83
2024/01/15 08:54:51;;;;;;;8.73;3.60;;;;;;;3.71;53.29;98045.41;6188454;22;96706;-85
2024/01/15 08:57:17;;;;;;;7.87;3.97;;;;;;;3.70;53.45;98034.19;6187845;22;101743;-83
2024/01/15 08:59:42;;;;;;;8.57;3.40;;;;;;;3.66;53.36;98024.81;6162359;22;101264;-84
2024/01/15 09:02:08;;;;;;;6.97;3.57;;;;;;;3.86;53.12;98058.56;6187271;22;96597;-83
2024/01/15 09:04:33;;;;;;;8.17;3.70;;;;;;;3.92;53.02;98054.00;6187878;22;96853;-83
2024/01/15 09:06:59;;;;;;;11.27;4.20;;;;;;;3.82;53.26;98043.19;6187701;22;97518;-83
2024/01/15 09:09:25;;;;;;;9.57;3.57;;;;;;;3.79;53.07;98030.34;6187651;22;101712;-83
2024/01/15 09:11:51;;;;;;;5.07;2.90;;;;;;;3.86;53.03;98045.56;6213766;22;96373;-83
2024/01/15 09:14:17;;;;;;;6.80;3.10;;;;;;;3.88;53.08;98040.34;6213677;22;96647;-84
2024/01/15 09:16:43;;;;;;;5.27;3.07;;;;;;;3.82;53.44;98031.06;6187626;22;101015;-83
2024/01/15 09:19:08;;;;;;;7.33;3.57;;;;;;;3.81;53.29;98037.16;6188078;22;101345;-82
2024/01/15 09:21:34;;;;;;;6.17;3.00;;;;;;;3.92;52.94;98048.81;6213809;22;96442;-83
2024/01/15 09:23:59;;;;;;;5.43;2.97;;;;;;;3.92;53.36;98046.22;6213908;22;96716;-83
2024/01/15 09:26:25;;;;;;;6.93;3.83;;;;;;;3.90;53.08;98024.69;6212491;22;101636;-83
2024/01/15 09:28:50;;;;;;;5.40;3.10;;;;;;;3.94;53.07;98019.28;6213316;22;98010;-83
2024/01/15 09:31:17;;;;;;;9.50;2.93;;;;;;;4.09;52.93;98043.75;6162798;22;96571;-86
2024/01/15 09:33:43;;;;;;;13.83;3.10;;;;;;;3.90;53.02;98016.88;6188547;22;96632;-82
2024/01/15 09:36:08;;;;;;;6.60;3.20;;;;;;;3.82;52.68;97997.31;6213203;22;98210;-82
2024/01/15 09:38:34;;;;;;;8.87;3.27;;;;;;;3.80;52.86;98008.66;6213315;22;97518;-83
2024/01/15 09:41:00;;;;;;;12.17;3.30;;;;;;;3.94;53.16;98021.91;6215072;22;96596;-82
2024/01/15 09:43:26;;;;;;;9.03;3.30;;;;;;;3.99;53.07;98032.09;6188711;22;96707;-84
2024/01/15 09:45:53;;;;;;;8.87;3.60;;;;;;;3.86;53.08;98026.56;6187595;22;101084;-89
2024/01/15 09:48:18;;;;;;;11.87;3.40;;;;;;;3.62;52.96;98005.13;6187556;22;101031;-85
2024/01/15 09:50:44;;;;;;;9.40;3.43;;;;;;;3.59;53.18;97989.69;6213146;22;96439;-84
2024/01/15 09:53:09;;;;;;;6.80;2.93;;;;;;;3.80;53.19;98034.63;6213246;22;96781;-83
2024/01/15 09:55:38;;;;;;;5.43;2.87;;;;;;;3.90;52.88;98029.88;6162266;22;101586;-82
2024/01/15 09:58:04;;;;;;;7.67;3.03;;;;;;;3.91;52.94;98047.16;6162221;22;101498;-83
2024/01/15 10:00:31;;;;;;;6.53;3.23;;;;;;;3.90;53.25;98037.66;6213513;22;96501;-85
2024/01/15 10:02:57;;;;;;;7.10;2.80;;;;;;;3.73;52.61;98008.09;6163036;22;96595;-84
2024/01/15 10:05:22;;;;;;;6.27;2.93;;;;;;;3.78;52.67;98006.16;6187324;22;101384;-82
2024/01/15 10:07:49;;;;;;;5.37;3.20;;;;;;;3.75;53.02;98013.22;6162873;22;101313;-85
2024/01/15 10:10:15;;;;;;;7.57;3.73;;;;;;;3.88;53.08;98049.88;6187609;22;96446;-83
2024/01/15 10:12:42;;;;;;;14.80;7.30;;;;;;;3.81;52.95;98031.09;6213525;22;96681;-86
2024/01/15 10:15:10;;;;;;;8.73;4.13;;;;;;;3.69;52.95;98016.06;6186683;22;101517;-83
2024/01/15 10:17:38;;;;;;;9.67;4.23;;;;;;;3.76;52.71;98026.13;6187881;22;98047;-83
2024/01/15 10:20:09;;;;;;;7.47;3.70;;;;;;;3.73;52.67;98031.44;6187850;22;96549;-83
2024/01/15 10:22:37;;;;;;;9.50;3.90;;;;;;;3.47;52.85;97987.63;6162238;22;96656;-83
2024/01/15 10:25:04;;;;;;;9.13;4.00;;;;;;;3.77;52.86;98017.44;6187502;22;101276;-84
2024/01/15 10:27:30;;;;;;;7.00;3.30;;;;;;;3.47;53.08;97980.66;6187321;22;101477;-84
2024/01/15 10:30:00;;;;;;;8.60;3.40;;;;;;;3.82;52.45;98022.44;6213398;22;96480;-83
2024/01/15 10:32:25;;;;;;;12.90;5.40;;;;;;;3.65;52.77;97989.41;6188703;22;96450;-84
2024/01/15 10:34:52;;;;;;;9.87;4.23;;;;;;;3.73;52.56;98005.50;6187419;22;98519;-83
2024/01/15 10:37:18;;;;;;;6.93;3.33;;;;;;;3.86;52.65;97998.03;6212968;22;97952;-83
2024/01/15 10:39:44;;;;;;;8.20;3.70;;;;;;;4.07;52.29;98022.19;6187246;22;96516;-83
2024/01/15 10:42:09;;;;;;;10.30;4.93;;;;;;;4.21;51.86;98026.78;6162435;22;96699;-83
2024/01/15 10:44:35;;;;;;;7.53;3.40;;;;;;;4.27;51.66;98018.72;6161915;22;101149;-84
2024/01/15 10:47:00;;;;;;;8.97;4.20;;;;;;;4.18;51.81;97982.78;6161947;22;101045;-82
2024/01/15 10:49:28;;;;;;;7.13;3.03;;;;;;;4.29;51.18;97985.72;6162043;22;96467;-84
2024/01/15 10:51:54;;;;;;;8.37;3.60;;;;;;;4.54;51.00;98027.03;6213298;22;96728;-83
2024/01/15 10:54:19;;;;;;;10.43;3.63;;;;;;;4.58;51.31;98015.56;6187088;22;101396;-83
2024/01/15 10:56:47;;;;;;;10.37;3.47;;;;;;;4.62;50.93;98011.06;6213623;22;96582;-83
2024/01/15 10:59:13;;;;;;;8.10;3.53;;;;;;;4.78;50.75;98009.44;6187675;22;96459;-86
2024/01/15 11:01:38;;;;;;;9.87;3.40;;;;;;;4.79;50.87;97989.47;6187867;22;96673;-85
2024/01/15 11:04:04;;;;;;;9.87;4.70;;;;;;;4.83;50.49;97981.47;6161326;22;101410;-85
2024/01/15 11:06:42;;;;;;;6.87;3.33;;;;;;;5.10;49.29;97981.88;6187327;22;101466;-86
2024/01/15 11:09:07;;;;;;;12.85;3.80;;;;;;;5.25;49.25;97984.66;6188067;22;96476;-86
2024/01/15 11:11:36;;;;;;;7.77;2.87;;;;;;;5.32;49.25;97993.81;6213251;22;96696;-84
2024/01/15 11:14:01;;;;;;;7.18;2.95;;;;;;;5.34;48.85;97999.81;6186603;22;101364;-83
2024/01/15 11:16:53;;;;;;;7.50;3.65;;;;;;;5.32;48.87;98015.47;6161900;22;101357;-84
2024/01/15 11:19:18;;;;;;;7.40;3.10;;;;;;;5.45;48.97;98002.72;6188016;22;96416;-83
2024/01/15 11:21:44;;;;;;;6.70;2.85;;;;;;;5.58;49.05;97995.13;6187842;22;96533;-83
2024/01/15 11:24:12;;;;;;;7.47;3.03;;;;;;;5.68;48.62;98001.56;6161375;22;99852;-82
2024/01/15 11:26:40;;;;;;;6.75;2.95;;;;;;;5.67;49.02;97999.84;6162542;22;101101;-82
2024/01/15 11:29:28;;;;;;;11.97;3.87;;;;;;;5.29;48.59;97974.00;6213688;22;96609;-83
2024/01/15 11:32:09;;;;;;;8.70;3.13;;;;;;;5.39;48.88;98003.03;6163277;22;96828;-84